Time;durP1;ratioP1;P1;durP2;ratioP2;P2;SDS_P1;SDS_P2;PMS_P1;PMS_P2;Temp;Humidity;BMP_temperature;BMP_pressure;BME280_temperature;BME280_humidity;BME280_pressure;Samples;Min_cycle;Max_cycle;Signal;HPM_P1;HPM_P2
2021/03/07 00:00:01;;;;;;;1.10;1.00;;;;;;;1.64;52.16;101779.59;6216723;23;20420;-73
2021/03/07 00:02:26;;;;;;;0.82;0.82;;;;;;;1.72;51.96;101776.03;6188702;23;20059;-75
2021/03/07 00:04:52;;;;;;;0.95;0.73;;;;;;;1.77;52.01;101784.44;6189107;23;20004;-75
2021/03/07 00:07:20;;;;;;;0.82;0.63;;;;;;;1.76;52.53;101782.75;6187376;23;19996;-75
2021/03/07 00:09:45;;;;;;;0.80;0.63;;;;;;;1.69;52.24;101760.19;6187998;23;20024;-75
2021/03/07 00:12:11;;;;;;;0.45;0.45;;;;;;;1.60;51.63;101762.06;6188735;23;20086;-74
2021/03/07 00:14:55;;;;;;;0.50;0.50;;;;;;;1.62;51.52;101753.81;6218656;23;20004;-75
2021/03/07 00:17:20;;;;;;;0.40;0.32;;;;;;;1.63;52.49;101750.09;6216808;23;20079;-74
2021/03/07 00:19:46;;;;;;;0.82;0.45;;;;;;;1.73;52.03;101761.53;6217719;23;20043;-75
2021/03/07 00:22:14;;;;;;;0.68;0.68;;;;;;;1.72;52.03;101755.31;6187775;23;20005;-74
2021/03/07 00:24:40;;;;;;;1.05;0.68;;;;;;;1.66;52.46;101744.38;6192138;23;20023;-73
2021/03/07 00:27:05;;;;;;;0.88;0.88;;;;;;;1.74;52.68;101752.44;6210198;23;20005;-73
2021/03/07 00:29:31;;;;;;;0.73;0.73;;;;;;;1.76;51.89;101745.00;6214923;23;20008;-74
2021/03/07 00:31:58;;;;;;;0.52;0.45;;;;;;;1.76;51.77;101736.06;6215508;23;20005;-73
2021/03/07 00:34:24;;;;;;;0.30;0.30;;;;;;;1.90;52.48;101759.63;6182563;23;20004;-73
2021/03/07 00:36:49;;;;;;;1.00;0.93;;;;;;;1.89;52.55;101749.84;6185812;23;20063;-72
2021/03/07 00:39:15;;;;;;;0.95;0.85;;;;;;;1.89;52.54;101745.25;6215907;23;20085;-73
2021/03/07 00:41:44;;;;;;;0.90;0.55;;;;;;;1.82;51.85;101738.88;6190611;23;20008;-73
2021/03/07 00:44:11;;;;;;;0.73;0.73;;;;;;;1.90;51.65;101763.13;6186859;23;20019;-74
2021/03/07 00:46:44;;;;;;;0.40;0.40;;;;;;;1.84;51.78;101731.47;6189745;23;20079;-74
2021/03/07 00:49:10;;;;;;;0.25;0.17;;;;;;;1.82;51.73;101733.50;6183979;23;20013;-74
2021/03/07 00:51:38;;;;;;;0.35;0.35;;;;;;;2.01;51.85;101763.75;6191763;23;20009;-74
2021/03/07 00:54:06;;;;;;;1.95;0.40;;;;;;;2.00;51.96;101740.50;6182939;23;20007;-75
2021/03/07 00:56:32;;;;;;;0.32;0.30;;;;;;;2.09;51.50;101744.84;6185767;23;20024;-73
2021/03/07 00:58:57;;;;;;;0.20;0.20;;;;;;;2.10;51.39;101746.50;6208793;23;20005;-73
2021/03/07 01:01:23;;;;;;;0.30;0.30;;;;;;;1.89;51.34;101720.97;6210470;23;20420;-74
2021/03/07 01:03:50;;;;;;;0.20;0.20;;;;;;;2.02;51.45;101738.47;6183115;23;20028;-75
2021/03/07 01:06:16;;;;;;;0.17;0.10;;;;;;;2.01;51.01;101747.56;6161633;23;20020;-75
2021/03/07 01:08:41;;;;;;;0.57;0.57;;;;;;;1.93;52.16;101734.97;6209674;23;20008;-75
2021/03/07 01:11:07;;;;;;;0.43;0.43;;;;;;;1.98;52.49;101732.56;6214531;23;20004;-75
2021/03/07 01:13:33;;;;;;;0.45;0.40;;;;;;;1.97;52.11;101738.16;6183211;23;20326;-75
2021/03/07 01:16:15;;;;;;;0.52;0.52;;;;;;;1.89;52.28;101728.25;6135091;23;20036;-74
2021/03/07 01:18:48;;;;;;;0.45;0.20;;;;;;;1.98;52.88;101727.19;6183047;23;20095;-75
2021/03/07 01:21:16;;;;;;;0.30;0.30;;;;;;;1.98;52.71;101711.00;6185089;23;20009;-74
2021/03/07 01:23:42;;;;;;;0.73;0.50;;;;;;;2.04;52.34;101725.63;6185554;23;20482;-74
2021/03/07 01:26:10;;;;;;;0.25;0.22;;;;;;;1.97;52.12;101712.03;6181073;23;20009;-75
2021/03/07 01:28:35;;;;;;;0.30;0.30;;;;;;;2.01;52.19;101712.50;6208369;23;20061;-75
2021/03/07 01:31:01;;;;;;;0.35;0.30;;;;;;;2.09;51.92;101715.97;6213651;23;20009;-73
2021/03/07 01:33:27;;;;;;;1.50;0.20;;;;;;;2.06;52.31;101712.81;6212831;23;20008;-74
2021/03/07 01:35:52;;;;;;;0.45;0.45;;;;;;;2.16;51.39;101718.81;6186452;23;20047;-74
2021/03/07 01:38:20;;;;;;;0.30;0.30;;;;;;;2.15;52.41;101710.91;6150320;23;20036;-74
2021/03/07 01:40:53;;;;;;;0.30;0.30;;;;;;;2.30;52.08;101724.47;6210672;23;20008;-74
2021/03/07 01:43:20;;;;;;;0.17;0.17;;;;;;;2.22;51.94;101704.59;6210541;23;20004;-74
2021/03/07 01:45:50;;;;;;;0.50;0.35;;;;;;;2.31;51.94;101712.63;6209609;23;20419;-74
2021/03/07 01:48:17;;;;;;;0.40;0.40;;;;;;;2.26;51.91;101707.78;6176192;23;20005;-74
2021/03/07 01:50:46;;;;;;;1.20;0.68;;;;;;;2.25;51.26;101698.84;6184200;23;20043;-73
2021/03/07 01:53:32;;;;;;;0.40;0.40;;;;;;;2.36;51.95;101708.38;6210392;23;20011;-73
2021/03/07 01:56:01;;;;;;;0.50;0.50;;;;;;;2.36;51.56;101707.53;6208063;23;20011;-74
2021/03/07 01:58:28;;;;;;;0.35;0.30;;;;;;;2.36;52.28;101688.66;6210076;23;20427;-73
2021/03/07 02:00:55;;;;;;;0.35;0.35;;;;;;;2.36;52.18;101683.25;6209406;23;20130;-73
2021/03/07 02:03:23;;;;;;;1.05;1.05;;;;;;;2.39;51.99;101674.78;6185150;23;20000;-74
2021/03/07 02:05:59;;;;;;;0.60;0.60;;;;;;;2.44;52.38;101696.69;6183839;23;20024;-73
2021/03/07 02:08:25;;;;;;;0.30;0.30;;;;;;;2.29;51.95;101674.19;6215378;23;19993;-73
2021/03/07 02:10:58;;;;;;;3.50;0.50;;;;;;;2.36;51.44;101680.56;6209916;23;20011;-73
2021/03/07 02:13:31;;;;;;;0.30;0.30;;;;;;;2.26;51.90;101668.16;6183326;23;20423;-73
2021/03/07 02:16:03;;;;;;;0.40;0.40;;;;;;;2.27;52.06;101661.69;6190115;23;19996;-73
2021/03/07 02:18:34;;;;;;;0.47;0.47;;;;;;;2.38;52.25;101675.78;6185446;23;20067;-73
2021/03/07 02:21:10;;;;;;;0.32;0.30;;;;;;;2.36;52.30;101670.56;6215406;23;20070;-73
2021/03/07 02:24:07;;;;;;;0.52;0.35;;;;;;;2.42;52.28;101669.88;6213624;23;20012;-74
2021/03/07 02:26:34;;;;;;;0.38;0.38;;;;;;;2.34;51.62;101652.91;6188290;23;20012;-74
2021/03/07 02:29:04;;;;;;;0.40;0.40;;;;;;;2.33;51.50;101651.22;6215703;23;20027;-74
2021/03/07 02:31:43;;;;;;;0.50;0.50;;;;;;;2.40;52.37;101663.81;6190570;23;20012;-74
2021/03/07 02:34:19;;;;;;;0.52;0.52;;;;;;;2.29;52.58;101639.09;6213738;23;20000;-74
2021/03/07 02:37:03;;;;;;;;;;;;;;;;;;;;;
2021/03/07 02:39:35;;;;;;;0.60;0.50;;;;;;;2.25;52.11;101631.38;6213251;23;20321;-74
2021/03/07 02:42:13;;;;;;;0.40;0.20;;;;;;;2.44;51.92;101646.22;6210890;23;20039;-73
2021/03/07 02:44:43;;;;;;;0.80;0.50;;;;;;;2.41;51.66;101629.53;6185788;23;20000;-73
2021/03/07 02:47:20;;;;;;;0.35;0.35;;;;;;;2.52;52.63;101630.97;6184379;23;20011;-75
2021/03/07 02:49:47;;;;;;;1.15;0.65;;;;;;;2.46;52.49;101624.44;6215147;23;20128;-73
2021/03/07 02:52:13;;;;;;;0.47;0.40;;;;;;;2.56;51.42;101630.41;6188672;23;20087;-75
2021/03/07 02:54:40;;;;;;;0.50;0.43;;;;;;;2.44;52.22;101607.59;6214425;23;20091;-74
2021/03/07 02:57:06;;;;;;;0.68;0.68;;;;;;;2.59;51.76;101627.34;6190662;23;20015;-74
2021/03/07 02:59:36;;;;;;;0.60;0.60;;;;;;;2.65;52.10;101639.28;6162094;23;20082;-74
2021/03/07 03:02:14;;;;;;;;;;;;;;;;;;;;;
2021/03/07 03:04:59;;;;;;;0.60;0.60;;;;;;;2.54;51.17;101620.81;6213473;23;20076;-74
2021/03/07 03:07:27;;;;;;;0.85;0.50;;;;;;;2.62;52.19;101629.69;6187705;23;20004;-73
2021/03/07 03:09:55;;;;;;;0.30;0.30;;;;;;;2.57;52.08;101618.59;6213852;23;20030;-73
2021/03/07 03:12:23;;;;;;;0.30;0.20;;;;;;;2.56;52.22;101605.28;6182222;23;20000;-74
2021/03/07 03:14:48;;;;;;;0.45;0.45;;;;;;;2.59;52.14;101605.75;6187608;23;20111;-73
2021/03/07 03:17:44;;;;;;;0.25;0.25;;;;;;;2.76;52.33;101632.56;6186599;23;20035;-73
2021/03/07 03:20:22;;;;;;;0.38;0.38;;;;;;;2.69;51.50;101610.06;6185322;23;20004;-73
2021/03/07 03:22:49;;;;;;;1.00;1.00;;;;;;;2.72;52.05;101607.81;6206333;23;20000;-74
2021/03/07 03:25:17;;;;;;;2.70;1.95;;;;;;;2.66;53.25;101605.00;6159818;23;20009;-74
2021/03/07 03:27:43;;;;;;;1.15;1.15;;;;;;;2.56;52.32;101600.72;6185661;23;20015;-73
2021/03/07 03:30:15;;;;;;;1.75;1.65;;;;;;;2.57;52.66;101618.59;6212451;23;20024;-74
2021/03/07 03:32:41;;;;;;;0.85;0.85;;;;;;;2.53;52.86;101622.69;6212787;23;20019;-74
2021/03/07 03:35:12;;;;;;;1.20;0.63;;;;;;;2.45;52.59;101609.25;6160692;23;20001;-74
2021/03/07 03:37:48;;;;;;;1.75;0.90;;;;;;;2.47;53.20;101600.97;6209894;23;20005;-74
2021/03/07 03:40:20;;;;;;;1.15;1.00;;;;;;;2.51;52.69;101608.53;6208470;23;20686;-74
2021/03/07 03:42:50;;;;;;;1.70;0.80;;;;;;;2.53;52.57;101597.56;6183227;23;20005;-74
2021/03/07 03:45:25;;;;;;;0.80;0.80;;;;;;;2.57;53.34;101607.78;6185570;23;20024;-74
2021/03/07 03:47:55;;;;;;;0.70;0.68;;;;;;;2.55;52.57;101593.63;6206441;23;20008;-74
2021/03/07 03:50:30;;;;;;;0.50;0.40;;;;;;;2.68;52.40;101608.38;6210724;22;20005;-73
2021/03/07 03:53:01;;;;;;;0.68;0.68;;;;;;;2.77;53.57;101620.75;6185847;23;20004;-73
2021/03/07 03:55:34;;;;;;;0.80;0.80;;;;;;;2.78;53.36;101614.34;6178913;23;20726;-74
2021/03/07 03:58:07;;;;;;;0.75;0.50;;;;;;;2.71;52.23;101608.00;6210190;23;20416;-73
2021/03/07 04:00:59;;;;;;;0.30;0.30;;;;;;;2.69;52.00;101593.84;6208412;23;20751;-73
2021/03/07 04:03:25;;;;;;;0.43;0.30;;;;;;;2.71;52.29;101605.28;6185868;23;20012;-74
2021/03/07 04:06:13;;;;;;;0.73;0.43;;;;;;;2.74;52.13;101588.72;6205619;23;20009;-74
2021/03/07 04:08:44;;;;;;;0.50;0.50;;;;;;;2.76;52.70;101592.06;6210628;23;20058;-71
2021/03/07 04:11:10;;;;;;;0.30;0.30;;;;;;;2.66;51.89;101577.97;6182892;23;20008;-73
2021/03/07 04:13:46;;;;;;;;;;;;;;;;;;;;;
2021/03/07 04:16:14;;;;;;;0.20;0.20;;;;;;;2.72;52.14;101579.97;6208711;23;20075;-72
2021/03/07 04:18:40;;;;;;;0.32;0.32;;;;;;;2.84;51.89;101596.56;6210340;23;20004;-72
2021/03/07 04:21:07;;;;;;;0.10;0.10;;;;;;;2.72;52.09;101585.38;6184474;23;20055;-71
2021/03/07 04:23:36;;;;;;;0.20;0.20;;;;;;;2.74;51.81;101586.00;6211320;23;20464;-73
2021/03/07 04:26:04;;;;;;;0.20;0.20;;;;;;;2.67;53.00;101575.09;6186665;23;20074;-72
2021/03/07 04:28:30;;;;;;;0.52;0.50;;;;;;;2.67;52.00;101585.91;6209418;23;20009;-74
2021/03/07 04:30:58;;;;;;;2.47;0.50;;;;;;;2.64;52.13;101585.44;6150770;23;20335;-73
2021/03/07 04:33:26;;;;;;;0.85;0.85;;;;;;;2.55;52.47;101582.00;6211399;23;20000;-73
2021/03/07 04:35:52;;;;;;;0.80;0.60;;;;;;;2.49;52.49;101578.16;6212059;23;20011;-72
2021/03/07 04:38:25;;;;;;;0.52;0.50;;;;;;;2.61;53.16;101598.31;6209026;23;20004;-72
2021/03/07 04:40:53;;;;;;;0.73;0.73;;;;;;;2.49;53.01;101586.25;6182856;23;20420;-72
2021/03/07 04:43:23;;;;;;;0.50;0.50;;;;;;;2.47;52.70;101584.75;6209705;23;20424;-72
2021/03/07 04:45:48;;;;;;;0.65;0.40;;;;;;;2.43;52.52;101584.31;6180378;23;20032;-73
2021/03/07 04:48:14;;;;;;;0.32;0.30;;;;;;;2.47;53.42;101596.44;6180940;23;20466;-72
2021/03/07 04:50:42;;;;;;;0.60;0.60;;;;;;;2.38;53.14;101590.25;6210472;22;20029;-74
2021/03/07 04:53:11;;;;;;;0.50;0.50;;;;;;;2.40;53.09;101593.59;6181046;23;20070;-72
2021/03/07 04:55:36;;;;;;;0.40;0.32;;;;;;;2.40;52.49;101596.31;6158583;23;20013;-72
2021/03/07 04:58:02;;;;;;;0.30;0.30;;;;;;;2.39;53.08;101591.09;6183488;23;20032;-73
2021/03/07 05:00:27;;;;;;;0.20;0.20;;;;;;;2.47;52.96;101595.56;6179504;23;20000;-73
2021/03/07 05:02:53;;;;;;;0.35;0.35;;;;;;;2.47;53.25;101588.31;6179965;23;20634;-73
2021/03/07 05:05:18;;;;;;;0.30;0.30;;;;;;;2.47;53.11;101596.44;6212775;23;20009;-73
2021/03/07 05:08:01;;;;;;;0.40;0.40;;;;;;;2.37;52.85;101582.34;6182347;23;20012;-73
2021/03/07 05:10:27;;;;;;;0.30;0.30;;;;;;;2.45;53.51;101595.75;6205747;23;20074;-72
2021/03/07 05:12:55;;;;;;;0.60;0.60;;;;;;;2.43;52.75;101592.41;6183445;23;20008;-72
2021/03/07 05:15:20;;;;;;;1.08;0.73;;;;;;;2.42;52.83;101596.13;6204054;23;20000;-72
2021/03/07 05:17:48;;;;;;;1.83;0.70;;;;;;;2.38;53.11;101597.50;6186270;23;20013;-73
2021/03/07 05:20:16;;;;;;;0.90;0.90;;;;;;;2.32;53.62;101587.44;6205248;23;20009;-73
2021/03/07 05:22:42;;;;;;;7.00;0.73;;;;;;;2.31;53.78;101580.34;6161698;23;20008;-73
2021/03/07 05:25:08;;;;;;;0.55;0.50;;;;;;;2.36;53.19;101599.56;6158353;23;20016;-73
2021/03/07 05:27:36;;;;;;;0.50;0.50;;;;;;;2.25;52.74;101582.78;6210501;23;20079;-72
2021/03/07 05:30:01;;;;;;;0.47;0.47;;;;;;;2.24;52.86;101580.25;6175764;23;20089;-72
2021/03/07 05:32:44;;;;;;;0.30;0.30;;;;;;;2.19;53.82;101571.84;6183585;23;20043;-72
2021/03/07 05:35:18;;;;;;;0.73;0.73;;;;;;;2.09;53.58;101562.16;6211106;23;20004;-73
2021/03/07 05:38:10;;;;;;;1.33;0.73;;;;;;;2.02;53.37;101555.00;6185894;23;20013;-72
2021/03/07 05:40:35;;;;;;;0.57;0.57;;;;;;;2.03;53.56;101578.22;6204664;23;20011;-74
2021/03/07 05:43:06;;;;;;;1.00;0.50;;;;;;;2.15;52.74;101597.56;6184219;23;20308;-73
2021/03/07 05:45:32;;;;;;;0.70;0.63;;;;;;;2.11;53.23;101597.06;6209806;23;20028;-72
2021/03/07 05:47:57;;;;;;;0.52;0.52;;;;;;;2.09;53.03;101583.75;6177136;23;20327;-72
2021/03/07 05:50:26;;;;;;;0.90;0.90;;;;;;;2.08;53.63;101592.88;6186138;23;20012;-73
2021/03/07 05:52:53;;;;;;;0.93;0.93;;;;;;;2.03;54.15;101584.50;6216218;23;20024;-73
2021/03/07 05:55:20;;;;;;;1.88;1.00;;;;;;;2.00;53.84;101592.09;6208318;23;20083;-73
2021/03/07 05:57:47;;;;;;;1.38;0.80;;;;;;;2.07;53.74;101595.75;6187755;23;20067;-73
2021/03/07 06:00:14;;;;;;;0.63;0.63;;;;;;;1.96;54.09;101577.28;6197592;23;20043;-73
2021/03/07 06:02:40;;;;;;;1.63;1.13;;;;;;;1.98;53.23;101580.66;6225677;23;20035;-73
2021/03/07 06:05:06;;;;;;;0.60;0.60;;;;;;;2.05;53.38;101592.41;6220727;23;19993;-73
2021/03/07 06:07:31;;;;;;;1.17;1.08;;;;;;;1.99;53.21;101582.34;6234441;23;20004;-72
2021/03/07 06:10:23;;;;;;;0.80;0.60;;;;;;;2.09;54.14;101602.66;6200596;23;20012;-72
2021/03/07 06:13:22;;;;;;;0.82;0.82;;;;;;;1.94;53.59;101573.94;6225796;23;20001;-73
2021/03/07 06:16:15;;;;;;;1.98;1.30;;;;;;;2.05;53.04;101595.94;6217001;23;20055;-73
2021/03/07 06:18:46;;;;;;;1.75;1.40;;;;;;;1.92;53.62;101574.94;6188078;23;20092;-73
2021/03/07 06:21:34;;;;;;;1.33;1.23;;;;;;;2.01;53.67;101577.59;6188091;23;20013;-74
2021/03/07 06:24:01;;;;;;;2.08;1.77;;;;;;;1.98;54.47;101577.97;6188705;23;20095;-74
2021/03/07 06:26:27;;;;;;;1.60;1.50;;;;;;;2.10;54.22;101589.97;6186417;23;20023;-74
2021/03/07 06:29:13;;;;;;;2.05;1.85;;;;;;;2.08;53.92;101579.38;6216494;23;20072;-73
2021/03/07 06:31:44;;;;;;;;;;;;;;;2.15;53.83;101590.28;6178581;23;20005;-73
2021/03/07 06:34:16;;;;;;;1.38;1.27;;;;;;;2.15;53.76;101582.19;6182362;23;19908;-74
2021/03/07 06:36:41;;;;;;;1.00;0.85;;;;;;;2.13;53.89;101572.59;6213659;23;20024;-73
2021/03/07 06:39:15;;;;;;;1.13;1.10;;;;;;;2.16;53.69;101573.09;6179544;23;20005;-73
2021/03/07 06:41:41;;;;;;;1.30;1.02;;;;;;;2.27;53.63;101586.13;6211731;23;20012;-73
2021/03/07 06:44:14;;;;;;;1.08;1.08;;;;;;;2.32;53.16;101587.44;6184532;23;20115;-73
2021/03/07 06:46:49;;;;;;;1.85;1.33;;;;;;;2.34;53.29;101586.25;6186137;23;20016;-72
2021/03/07 06:49:39;;;;;;;1.90;1.80;;;;;;;2.32;52.45;101582.03;6218697;22;20020;-73
2021/03/07 06:52:19;;;;;;;1.33;0.95;;;;;;;2.36;52.34;101586.06;6246466;23;20069;-73
2021/03/07 06:55:03;;;;;;;1.00;1.00;;;;;;;2.39;52.42;101580.28;6238694;23;20008;-74
2021/03/07 06:57:29;;;;;;;0.60;0.60;;;;;;;2.45;52.92;101574.16;6217541;23;20015;-72
2021/03/07 06:59:55;;;;;;;0.60;0.60;;;;;;;2.47;53.39;101577.53;6244435;23;20320;-73
2021/03/07 07:02:23;;;;;;;0.70;0.70;;;;;;;2.65;52.47;101597.94;6238442;23;20015;-73
2021/03/07 07:04:50;;;;;;;0.40;0.40;;;;;;;2.59;52.51;101567.09;6219960;23;20007;-71
2021/03/07 07:07:20;;;;;;;1.52;0.60;;;;;;;2.70;52.93;101569.34;6220010;23;20064;-73
2021/03/07 07:09:57;;;;;;;1.05;1.05;;;;;;;2.76;51.70;101573.16;6242963;23;19992;-72
2021/03/07 07:12:24;;;;;;;0.93;0.93;;;;;;;2.88;51.52;101585.19;6246810;23;20000;-72
2021/03/07 07:15:04;;;;;;;0.80;0.80;;;;;;;2.97;51.35;101591.31;6208777;23;20038;-73
2021/03/07 07:17:30;;;;;;;1.65;0.93;;;;;;;2.92;51.90;101575.69;6240031;23;20015;-74
2021/03/07 07:19:58;;;;;;;0.70;0.70;;;;;;;3.05;51.26;101588.53;6243765;23;20008;-71
2021/03/07 07:22:26;;;;;;;1.25;1.15;;;;;;;3.00;51.31;101565.81;6217210;23;20010;-71
2021/03/07 07:24:51;;;;;;;1.25;0.70;;;;;;;3.12;52.04;101588.59;6216203;23;20057;-72
2021/03/07 07:27:22;;;;;;;0.70;0.70;;;;;;;3.17;51.00;101591.59;6210062;23;20004;-73
2021/03/07 07:29:48;;;;;;;1.95;1.02;;;;;;;3.19;51.91;101586.81;6212752;23;20078;-71
2021/03/07 07:32:30;;;;;;;1.05;0.82;;;;;;;3.30;51.19;101594.47;6241434;23;20075;-74
2021/03/07 07:35:24;;;;;;;0.80;0.80;;;;;;;3.38;51.26;101598.09;6241001;23;20442;-74
2021/03/07 07:38:03;;;;;;;1.13;1.02;;;;;;;3.45;51.79;101597.13;6241954;23;20011;-74
2021/03/07 07:40:44;;;;;;;1.10;1.10;;;;;;;3.44;50.62;101586.50;6236055;23;20000;-74
2021/03/07 07:43:11;;;;;;;0.93;0.93;;;;;;;3.50;51.24;101585.75;6245197;23;20167;-74
2021/03/07 07:45:37;;;;;;;1.13;1.00;;;;;;;3.52;50.57;101577.44;6215603;23;20323;-73
2021/03/07 07:48:06;;;;;;;1.77;1.67;;;;;;;3.62;50.44;101586.94;6247266;23;20053;-73
2021/03/07 07:50:37;;;;;;;1.25;1.08;;;;;;;3.65;50.83;101589.25;6236577;22;20019;-74
2021/03/07 07:53:25;;;;;;;1.27;0.90;;;;;;;3.79;49.71;101592.09;6220508;23;20002;-75
2021/03/07 07:55:58;;;;;;;1.13;1.02;;;;;;;3.78;50.11;101582.28;6241158;23;20011;-74
2021/03/07 07:58:36;;;;;;;2.65;1.02;;;;;;;3.95;50.63;101602.66;6214957;23;20061;-74
2021/03/07 08:01:07;;;;;;;1.60;1.50;;;;;;;3.92;50.16;101592.22;6244802;23;20040;-74
2021/03/07 08:03:34;;;;;;;1.40;1.30;;;;;;;4.08;49.89;101607.38;6245873;23;20442;-73
2021/03/07 08:06:06;;;;;;;1.33;1.25;;;;;;;4.13;49.63;101601.38;6215085;23;20011;-72
2021/03/07 08:08:43;;;;;;;1.23;1.23;;;;;;;4.12;49.35;101588.88;6245677;23;20082;-74
2021/03/07 08:11:30;;;;;;;0.90;0.90;;;;;;;4.32;48.99;101607.97;6244317;23;20000;-73
2021/03/07 08:13:59;;;;;;;1.50;1.40;;;;;;;4.25;48.91;101586.28;6219167;23;20008;-74
2021/03/07 08:16:45;;;;;;;1.35;1.20;;;;;;;4.34;48.87;101593.22;6245918;23;20380;-73
2021/03/07 08:19:15;;;;;;;1.02;1.02;;;;;;;4.31;49.34;101590.09;6214328;23;20008;-73
2021/03/07 08:22:03;;;;;;;0.63;0.63;;;;;;;4.53;49.04;101607.13;6219972;23;20624;-73
2021/03/07 08:24:50;;;;;;;0.88;0.80;;;;;;;4.63;49.19;101601.34;6248349;23;20300;-73
2021/03/07 08:27:38;;;;;;;1.63;1.52;;;;;;;4.75;48.28;101602.47;6245227;23;20063;-73
2021/03/07 08:30:12;;;;;;;2.15;1.45;;;;;;;4.75;48.16;101598.94;6249197;23;20103;-73
2021/03/07 08:32:40;;;;;;;1.50;1.40;;;;;;;4.74;48.18;101591.84;6242410;23;20039;-73
2021/03/07 08:35:24;;;;;;;1.73;1.63;;;;;;;4.93;48.00;101606.56;6245758;23;20066;-77
2021/03/07 08:38:14;;;;;;;1.58;1.48;;;;;;;4.99;47.51;101606.56;6218876;23;20330;-75
2021/03/07 08:40:41;;;;;;;1.80;1.67;;;;;;;4.95;47.43;101594.47;6241483;23;20416;-75
2021/03/07 08:43:25;;;;;;;1.40;0.90;;;;;;;5.23;47.25;101615.28;6219066;23;20072;-75
2021/03/07 08:46:04;;;;;;;0.70;0.70;;;;;;;5.41;47.46;101615.53;6218600;23;20008;-75
2021/03/07 08:48:33;;;;;;;1.30;1.30;;;;;;;5.36;46.86;101590.91;6219161;23;20007;-76
2021/03/07 08:50:59;;;;;;;1.30;1.30;;;;;;;5.57;47.17;101610.81;6221103;23;20020;-76
2021/03/07 08:53:29;;;;;;;1.40;0.77;;;;;;;5.70;47.11;101613.56;6245989;23;20030;-74
2021/03/07 08:55:55;;;;;;;1.55;1.27;;;;;;;5.74;46.67;101609.41;6246790;23;20083;-75
2021/03/07 08:58:21;;;;;;;2.63;1.35;;;;;;;5.76;46.34;101596.44;6226611;23;20011;-74
2021/03/07 09:00:48;;;;;;;0.93;0.93;;;;;;;5.78;46.30;101588.09;6244013;23;20027;-76
2021/03/07 09:03:18;;;;;;;1.08;1.08;;;;;;;5.80;46.24;101585.19;6242919;23;20027;-75
2021/03/07 09:05:44;;;;;;;1.20;1.20;;;;;;;5.90;45.83;101607.38;6251167;23;20030;-79
2021/03/07 09:08:10;;;;;;;2.75;2.03;;;;;;;5.86;45.76;101600.66;6244528;23;20583;-76
2021/03/07 09:11:07;;;;;;;;;;;;;;;;;;;;;
2021/03/07 09:13:33;;;;;;;1.60;1.50;;;;;;;5.94;46.26;101597.72;6253252;23;20032;-80
2021/03/07 09:16:19;;;;;;;2.15;1.70;;;;;;;6.11;46.09;101603.66;6245061;23;20326;-79
2021/03/07 09:18:51;;;;;;;;;;;;;;;6.18;45.67;101592.81;6218766;23;20004;-80
2021/03/07 09:21:18;;;;;;;2.03;1.83;;;;;;;6.01;45.53;101576.06;6244973;23;20349;-81
2021/03/07 09:23:50;;;;;;;1.65;1.55;;;;;;;6.17;44.84;101581.09;6223592;23;20008;-80
2021/03/07 09:26:22;;;;;;;5.28;1.92;;;;;;;6.30;44.67;101593.84;6221552;23;20011;-74
2021/03/07 09:28:49;;;;;;;2.88;1.55;;;;;;;6.39;44.80;101589.84;6242852;23;20000;-74
2021/03/07 09:31:20;;;;;;;1.25;1.15;;;;;;;6.51;44.85;101578.34;6245562;23;20004;-75
2021/03/07 09:34:02;;;;;;;0.70;0.70;;;;;;;6.71;44.30;101571.00;6222279;23;20004;-75
2021/03/07 09:36:30;;;;;;;0.75;0.75;;;;;;;7.01;43.56;101586.84;6223733;23;20441;-75
2021/03/07 09:38:55;;;;;;;1.45;1.15;;;;;;;7.12;43.03;101583.44;6216803;23;20030;-75
2021/03/07 09:41:41;;;;;;;1.05;0.90;;;;;;;7.37;42.34;101585.44;6219481;23;20031;-76
2021/03/07 09:44:13;;;;;;;0.82;0.82;;;;;;;7.40;42.28;101585.00;6216817;23;20034;-76
2021/03/07 09:46:46;;;;;;;0.88;0.80;;;;;;;7.54;41.62;101590.41;6242411;23;20030;-76
2021/03/07 09:49:19;;;;;;;1.35;0.80;;;;;;;7.67;41.74;101587.59;6242787;22;20362;-76
2021/03/07 09:51:49;;;;;;;1.20;0.80;;;;;;;7.88;41.52;101574.69;6246558;23;20000;-75
2021/03/07 09:54:16;;;;;;;0.90;0.50;;;;;;;8.21;41.41;101574.47;6215512;23;20004;-76
2021/03/07 09:57:03;;;;;;;;;;;;;;;;;;;;;
2021/03/07 09:59:32;;;;;;;0.55;0.55;;;;;;;8.84;40.69;101580.81;6237237;23;20414;-76
2021/03/07 10:02:22;;;;;;;0.70;0.70;;;;;;;8.94;39.88;101567.50;6191401;23;20085;-73
2021/03/07 10:05:09;;;;;;;1.88;1.10;;;;;;;8.91;39.45;101546.94;6195893;23;20008;-77
2021/03/07 10:07:36;;;;;;;;;;;;;;;9.35;39.25;101579.59;6225917;23;20012;-74
2021/03/07 10:10:11;;;;;;;2.92;1.10;;;;;;;9.36;39.13;101577.69;6224341;23;19988;-76
2021/03/07 10:12:55;;;;;;;0.90;0.90;;;;;;;9.46;39.28;101577.97;6251376;23;20000;-75
2021/03/07 10:15:38;;;;;;;1.40;1.30;;;;;;;9.44;38.50;101572.75;6228386;23;20004;-75
2021/03/07 10:18:10;;;;;;;2.00;1.90;;;;;;;9.49;36.61;101573.94;6257577;23;20000;-72
2021/03/07 10:20:39;;;;;;;0.90;0.90;;;;;;;9.44;37.29;101566.47;6255244;23;20001;-73
2021/03/07 10:23:04;;;;;;;0.40;0.40;;;;;;;9.64;37.89;101562.59;6266592;23;20014;-72
2021/03/07 10:25:41;;;;;;;0.90;0.90;;;;;;;9.88;36.50;101578.00;6264516;23;20003;-73
2021/03/07 10:28:22;;;;;;;1.67;1.58;;;;;;;10.01;36.66;101567.97;6226683;23;20000;-72
2021/03/07 10:30:50;;;;;;;4.38;1.45;;;;;;;10.11;36.41;101570.94;6249207;23;20012;-73
2021/03/07 10:33:24;;;;;;;0.95;0.80;;;;;;;10.26;37.36;101575.97;6225240;23;20392;-73
2021/03/07 10:36:20;;;;;;;2.00;1.53;;;;;;;10.40;36.85;101557.47;6226727;23;20004;-75
2021/03/07 10:38:47;;;;;;;1.17;1.08;;;;;;;10.43;36.50;101570.66;6239125;23;20008;-74
2021/03/07 10:41:34;;;;;;;;;;;;;;;;;;;;;
2021/03/07 10:44:02;;;;;;;1.08;1.05;;;;;;;10.43;35.41;101570.66;6252562;23;20023;-75
2021/03/07 10:46:42;;;;;;;0.70;0.70;;;;;;;11.28;37.29;101555.53;6223070;23;20292;-75
2021/03/07 10:49:31;;;;;;;0.60;0.60;;;;;;;11.78;35.94;101553.19;6224431;22;19996;-76
2021/03/07 10:52:22;;;;;;;1.45;1.40;;;;;;;12.28;34.58;101555.19;6252677;23;20000;-75
2021/03/07 10:54:47;;;;;;;0.82;0.82;;;;;;;13.03;34.09;101554.88;6241117;23;20428;-75
2021/03/07 10:57:15;;;;;;;0.68;0.68;;;;;;;14.60;35.02;101549.50;6224534;23;20028;-76
2021/03/07 10:59:51;;;;;;;0.45;0.45;;;;;;;16.45;34.34;101538.97;6251653;23;20012;-75
2021/03/07 11:02:20;;;;;;;0.43;0.43;;;;;;;18.01;32.18;101529.72;6225135;23;20091;-76
2021/03/07 11:04:46;;;;;;;0.50;0.50;;;;;;;19.75;30.98;101558.50;6223641;23;20051;-76
2021/03/07 11:07:17;;;;;;;0.40;0.40;;;;;;;21.13;29.70;101557.19;6225845;23;20315;-76
2021/03/07 11:10:03;;;;;;;0.70;0.70;;;;;;;22.91;27.54;101563.44;6225857;23;20004;-76
2021/03/07 11:12:40;;;;;;;0.52;0.52;;;;;;;24.47;26.32;101561.91;6252793;23;19997;-76
2021/03/07 11:15:10;;;;;;;0.28;0.28;;;;;;;25.67;25.86;101545.19;6221399;23;20347;-74
2021/03/07 11:20:57;;;;;;;0.63;0.63;;;;;;;28.06;21.12;101560.31;6208859;23;20023;-76
2021/03/07 11:23:23;;;;;;;0.40;0.40;;;;;;;28.51;20.50;101545.88;6206807;23;20000;-75
2021/03/07 11:26:15;;;;;;;0.52;0.52;;;;;;;29.36;18.37;101553.19;6222939;23;20019;-76
2021/03/07 11:28:48;;;;;;;0.85;0.40;;;;;;;30.11;18.53;101557.59;6251224;23;20008;-74
2021/03/07 11:31:14;;;;;;;0.53;0.53;;;;;;;30.28;16.74;101563.94;6225858;23;20000;-76
2021/03/07 11:33:57;;;;;;;0.20;0.20;;;;;;;30.61;17.63;101548.44;6202174;23;20089;-73
2021/03/07 11:36:30;;;;;;;0.50;0.30;;;;;;;31.77;16.75;101557.44;6227313;23;20000;-75
2021/03/07 11:39:14;;;;;;;0.35;0.32;;;;;;;32.79;14.89;101548.81;6225168;23;20066;-74
2021/03/07 11:42:15;;;;;;;;;;;;;;;;;;;;;
2021/03/07 11:44:43;;;;;;;0.40;0.40;;;;;;;33.82;14.33;101547.03;6219150;23;20083;-76
2021/03/07 11:47:09;;;;;;;0.35;0.30;;;;;;;34.32;14.17;101551.22;6248385;23;20004;-76
2021/03/07 11:49:35;;;;;;;0.20;0.20;;;;;;;34.69;13.33;101550.00;6244514;22;20035;-77
2021/03/07 11:52:03;;;;;;;0.50;0.50;;;;;;;34.86;13.81;101546.38;6242234;23;20019;-76
2021/03/07 11:54:28;;;;;;;0.20;0.20;;;;;;;34.20;12.49;101544.69;6218191;23;20085;-76
2021/03/07 11:56:59;;;;;;;0.10;0.10;;;;;;;33.25;13.68;101543.88;6169777;23;20024;-76
2021/03/07 11:59:25;;;;;;;0.30;0.20;;;;;;;33.59;13.85;101533.13;6243848;23;20000;-75
2021/03/07 12:01:50;;;;;;;0.35;0.35;;;;;;;34.06;12.69;101533.31;6170065;23;20027;-75
2021/03/07 12:04:20;;;;;;;0.30;0.30;;;;;;;32.84;12.27;101527.81;6241319;23;20367;-74
2021/03/07 12:06:46;;;;;;;0.40;0.30;;;;;;;32.57;12.28;101547.00;6247582;23;20249;-75